Αρχική σελίδα
METAR-TAF:

METAR-TAF

Αεροδρόμια :

Sigonella, Ιταλία

γεωγραφικό πλάτος: 37-24N, γεωγραφικό μήκος: 014-55E, υψόμετρο: 22 μ

Παρών καιρός

Η αναφορά έγινε 1 ώρα και 22 λεπτά πριν, στις 16:55 UTC
Θερμοκρασία 16°C
Υγρασία 100%
Πίεση 1009 hPa
Ορατότητα 10 χλμ και άνω
Διάσπαρτα νέφη σε ύψος 4000 πόδια

METAR: LICZ 181655Z /////KT 9999 SCT040 16/16 Q1009 RMK BKN BKN150 VIS MIN 9999 WIND THR28 16005KT WIND THR10 19004KT A2982 BLU

Χρόνος: 19:17 (18:17 UTC)

Πρόγνωση Καιρού

Η αναφορά έγινε 1 ώρα και 17 λεπτά πριν, στις 17:00 UTC
Η πρόγνωση ισχύει από τις 18 στις 18 UTC έως τις 19 στις 03 UTC
Άνεμος 6 kt από Ν/ΝΔ
Ορατότητα 10 χλμ και άνω
Διάσπαρτα νέφη σε ύψος 3000 πόδια
Αρκετά νέφη σε ύψος 8000 πόδια
Καθιστάμενος
από 18 στις 20 UTC έως τις 18 στις 22 UTC
Άνεμος 8 kt από Δ/BΔ

TAF: LICZ 181700Z 1818/1903 20006KT 9999 SCT030 BKN080 BECMG 1820/1822 29008KT

Μετεωρολογικές αναφορές και προγνώσεις για περισσότερα από 4000 αεροδρόμια (δελτία METAR και TAF).

Οι διαθέσιμοι σταθμοί απεικονίζονται στο χάρτη με κίτρινες και κόκκινες κουκκίδες.

Μετακινήστε το ποντίκι πάνω από τις κουκκίδες για να δείτε το όνομα του σταθμού.

Στη συνέχεια, κάντε κλικ για να δείτε τις μετεωρολογικές αναφορές και τις προγνώσεις καιρού.

Για να αλλάξετε το χάρτη: κάντε κλικ στα πράσινα κουμπιά με τον μαύρο σταυρό για να ζουμάρετε, στο πράσινο κουμπί με την παύλα για να αφαιρέσετε το ζουμ ή στα πράσινα βέλη για να αντιπαραβάλλετε χάρτες.


METAR-TAF: